createdAt,value
2023-02-27T00:01:00.797Z,99164.47
2023-02-27T00:03:28.298Z,99161.34
2023-02-27T00:05:56.487Z,99162.31
2023-02-27T00:08:23.793Z,99160.31
2023-02-27T00:10:50.755Z,99163.94
2023-02-27T00:13:18.064Z,99183.06
2023-02-27T00:15:50.520Z,99176.91
2023-02-27T00:18:18.026Z,99188.84
2023-02-27T00:20:45.011Z,99187.16
2023-02-27T00:23:12.205Z,99178.72
2023-02-27T00:25:39.152Z,99190.47
2023-02-27T00:28:06.128Z,99202.91
2023-02-27T00:30:33.818Z,99206.53
2023-02-27T00:33:00.854Z,99213.91
2023-02-27T00:35:27.964Z,99208.94
2023-02-27T00:37:54.886Z,99208.69
2023-02-27T00:40:25.465Z,99218.97
2023-02-27T00:42:53.071Z,99216.56
2023-02-27T00:45:20.702Z,99229.72
2023-02-27T00:47:48.298Z,99225.09
2023-02-27T00:50:15.908Z,99221.94
2023-02-27T00:52:43.142Z,99216.50
2023-02-27T00:55:10.923Z,99245.75
2023-02-27T00:57:38.880Z,99252.22
2023-02-27T01:00:08.652Z,99245.09
2023-02-27T01:02:35.724Z,99240.16
2023-02-27T01:05:03.388Z,99259.28
2023-02-27T01:07:31.181Z,99247.19
2023-02-27T01:09:59.056Z,99256.22
2023-02-27T01:12:26.155Z,99257.84
2023-02-27T01:14:53.084Z,99259.56
2023-02-27T01:17:20.642Z,99269.50
2023-02-27T01:19:47.569Z,99272.66
2023-02-27T01:22:33.533Z,99278.53
2023-02-27T01:25:01.270Z,99274.97
2023-02-27T01:27:30.861Z,99276.03
2023-02-27T01:29:58.614Z,99282.25
2023-02-27T01:32:25.683Z,99288.28
2023-02-27T01:34:52.759Z,99291.34
2023-02-27T01:37:19.745Z,99289.25
2023-02-27T01:39:46.766Z,99299.88
2023-02-27T01:42:26.760Z,99301.19
2023-02-27T01:45:21.136Z,99302.72
2023-02-27T01:47:52.031Z,99311.59
2023-02-27T01:50:20.023Z,99317.19
2023-02-27T01:52:53.106Z,99314.66
2023-02-27T01:55:21.426Z,99319.88
2023-02-27T01:57:50.637Z,99326.19
2023-02-27T02:00:18.319Z,99334.84
2023-02-27T02:02:58.235Z,99342.63
2023-02-27T02:05:26.547Z,99349.47
2023-02-27T02:07:54.082Z,99354.31
2023-02-27T02:10:21.967Z,99349.31
2023-02-27T02:12:50.078Z,99364.31
2023-02-27T02:15:17.682Z,99367.78
2023-02-27T02:17:56.441Z,99371.28
2023-02-27T02:20:38.897Z,99372.22
2023-02-27T02:23:26.862Z,99384.88
2023-02-27T02:26:08.853Z,99392.34
2023-02-27T02:28:52.115Z,99396.63
2023-02-27T02:31:44.398Z,99393.63
2023-02-27T02:34:32.650Z,99405.47
2023-02-27T02:37:26.862Z,99409.16
2023-02-27T02:40:07.042Z,99414.50
2023-02-27T02:42:59.839Z,99418.44
2023-02-27T02:45:48.191Z,99433.38
2023-02-27T02:48:22.522Z,99425.78
2023-02-27T02:50:57.275Z,99426.22
2023-02-27T02:53:41.148Z,99422.28
2023-02-27T02:56:25.191Z,99428.56
2023-02-27T02:59:06.618Z,99434.50
2023-02-27T03:01:50.331Z,99449.56
2023-02-27T03:04:20.776Z,99453.63
2023-02-27T03:07:00.197Z,99453.34
2023-02-27T03:09:34.311Z,99460.88
2023-02-27T03:12:04.096Z,99471.22
2023-02-27T03:14:38.175Z,99471.44
2023-02-27T03:17:10.755Z,99470.53
2023-02-27T03:19:46.802Z,99471.13
2023-02-27T03:22:19.658Z,99482.75
2023-02-27T03:24:56.467Z,99474.63
2023-02-27T03:27:28.628Z,99486.22
2023-02-27T03:30:07.819Z,99485.03
2023-02-27T03:32:49.457Z,99484.25
2023-02-27T03:35:17.014Z,99492.19
2023-02-27T03:38:08.614Z,99505.38
2023-02-27T03:40:40.653Z,99503.56
2023-02-27T03:43:41.916Z,99518.19
2023-02-27T03:46:14.778Z,99531.22
2023-02-27T03:48:44.784Z,99538.78
2023-02-27T03:51:14.829Z,99544.25
2023-02-27T03:53:50.763Z,99551.38
2023-02-27T03:56:24.339Z,99555.16
2023-02-27T03:58:52.599Z,99561.09
2023-02-27T04:01:19.689Z,99565.50
2023-02-27T04:03:54.873Z,99568.44
2023-02-27T04:07:07.811Z,99578.88
2023-02-27T04:09:56.745Z,99584.66
2023-02-27T04:12:36.591Z,99571.63
2023-02-27T04:15:26.893Z,99583.41
2023-02-27T04:17:56.718Z,99589.78
2023-02-27T04:20:35.497Z,99579.63
2023-02-27T04:23:17.593Z,99575.09
2023-02-27T04:25:50.643Z,99588.75
2023-02-27T04:28:25.904Z,99593.19
2023-02-27T04:31:08.254Z,99603.00
2023-02-27T04:33:58.118Z,99610.84
2023-02-27T04:36:34.984Z,99604.38
2023-02-27T04:39:15.567Z,99606.94
2023-02-27T04:41:53.204Z,99627.44
2023-02-27T04:44:22.921Z,99624.19
2023-02-27T04:46:52.359Z,99638.09
2023-02-27T04:49:28.132Z,99643.22
2023-02-27T04:52:14.041Z,99642.94
2023-02-27T04:54:56.772Z,99643.66
2023-02-27T04:57:34.990Z,99641.59
2023-02-27T05:00:06.694Z,99659.72
2023-02-27T05:02:38.234Z,99651.50
2023-02-27T05:05:16.476Z,99655.09
2023-02-27T05:07:50.034Z,99655.09
2023-02-27T05:10:33.270Z,99658.19
2023-02-27T05:13:12.314Z,99663.03
2023-02-27T05:15:42.657Z,99664.03
2023-02-27T05:18:12.767Z,99675.66
2023-02-27T05:21:13.615Z,99678.00
2023-02-27T05:24:19.181Z,99681.06
2023-02-27T05:27:00.161Z,99685.00
2023-02-27T05:29:48.126Z,99686.59
2023-02-27T05:32:42.107Z,99683.47
2023-02-27T05:35:24.381Z,99694.19
2023-02-27T05:38:04.556Z,99689.88
2023-02-27T05:40:36.713Z,99697.69
2023-02-27T05:43:13.121Z,99711.25
2023-02-27T05:45:43.097Z,99709.78
2023-02-27T05:48:19.711Z,99697.81
2023-02-27T05:50:49.063Z,99702.38
2023-02-27T05:53:20.784Z,99720.97
2023-02-27T05:55:52.523Z,99722.75
2023-02-27T05:58:41.198Z,99724.28
2023-02-27T06:01:10.254Z,99728.19
2023-02-27T06:03:39.328Z,99729.50
2023-02-27T06:06:17.644Z,99735.09
2023-02-27T06:08:45.681Z,99741.88
2023-02-27T06:11:13.630Z,99739.53
2023-02-27T06:13:42.069Z,99740.38
2023-02-27T06:16:12.215Z,99746.06
2023-02-27T06:18:39.264Z,99745.84
2023-02-27T06:21:06.684Z,99743.38
2023-02-27T06:23:33.666Z,99757.84
2023-02-27T06:26:00.852Z,99758.66
2023-02-27T06:28:28.019Z,99753.97
2023-02-27T06:30:57.351Z,99759.78
2023-02-27T06:33:26.176Z,99769.69
2023-02-27T06:35:53.624Z,99768.78
2023-02-27T06:38:20.971Z,99771.06
2023-02-27T06:40:47.871Z,99774.56
2023-02-27T06:43:15.205Z,99775.94
2023-02-27T06:45:43.149Z,99781.69
2023-02-27T06:48:12.654Z,99778.06
2023-02-27T06:50:39.668Z,99785.16
2023-02-27T06:53:07.112Z,99791.50
2023-02-27T06:55:34.834Z,99788.75
2023-02-27T06:58:02.009Z,99800.13
2023-02-27T07:00:29.549Z,99797.34
2023-02-27T07:02:56.475Z,99796.50
2023-02-27T07:05:23.469Z,99798.94
2023-02-27T07:07:50.442Z,99808.88
2023-02-27T07:10:17.746Z,99819.13
2023-02-27T07:12:44.827Z,99807.50
2023-02-27T07:15:12.015Z,99810.13
2023-02-27T07:17:39.158Z,99814.25
2023-02-27T07:20:09.067Z,99818.41
2023-02-27T07:22:36.917Z,99824.63
2023-02-27T07:25:04.387Z,99821.03
2023-02-27T07:27:31.809Z,99821.13
2023-02-27T07:29:58.798Z,99826.19
2023-02-27T07:32:25.818Z,99843.63
2023-02-27T07:34:53.003Z,99846.59
2023-02-27T07:37:20.152Z,99848.75
2023-02-27T07:39:47.140Z,99852.31
2023-02-27T07:42:14.062Z,99847.94
2023-02-27T07:44:41.346Z,99858.75
2023-02-27T07:47:08.568Z,99852.38
2023-02-27T07:49:35.737Z,99850.38
2023-02-27T07:52:02.789Z,99856.81
2023-02-27T07:54:29.900Z,99856.47
2023-02-27T07:56:56.849Z,99855.13
2023-02-27T07:59:23.873Z,99856.16
2023-02-27T08:01:50.828Z,99857.47
2023-02-27T08:04:17.848Z,99865.81
2023-02-27T08:06:45.015Z,99868.25
2023-02-27T08:09:12.112Z,99874.78
2023-02-27T08:11:39.274Z,99877.91
2023-02-27T08:14:06.339Z,99887.63
2023-02-27T08:16:33.657Z,99879.31
2023-02-27T08:19:01.479Z,99881.09
2023-02-27T08:21:29.771Z,99892.31
2023-02-27T08:23:57.282Z,99889.28
2023-02-27T08:26:24.322Z,99889.91
2023-02-27T08:28:51.616Z,99894.50
2023-02-27T08:31:18.817Z,99899.59
2023-02-27T08:33:45.750Z,99893.22
2023-02-27T08:36:12.850Z,99897.72
2023-02-27T08:38:39.872Z,99902.41
2023-02-27T08:41:06.818Z,99894.47
2023-02-27T08:43:34.035Z,99899.31
2023-02-27T08:46:01.030Z,99909.13
2023-02-27T08:48:27.904Z,99909.81
2023-02-27T08:50:57.410Z,99905.59
2023-02-27T08:53:25.014Z,99909.25
2023-02-27T08:55:53.426Z,99911.41
2023-02-27T08:58:20.525Z,99914.56
2023-02-27T09:00:47.812Z,99912.94
2023-02-27T09:03:14.780Z,99924.41
2023-02-27T09:05:42.468Z,99917.16
2023-02-27T09:08:09.757Z,99929.78
2023-02-27T09:10:37.075Z,99929.81
2023-02-27T09:13:04.420Z,99935.03
2023-02-27T09:15:33.112Z,99932.22
2023-02-27T09:18:04.207Z,99946.88
2023-02-27T09:20:36.059Z,99951.44
2023-02-27T09:23:04.144Z,99956.66
2023-02-27T09:25:31.101Z,99962.84
2023-02-27T09:27:58.184Z,99965.63
2023-02-27T09:30:25.466Z,99977.16
2023-02-27T09:32:52.446Z,99983.06
2023-02-27T09:35:21.145Z,99987.94
2023-02-27T09:37:49.778Z,99988.97
2023-02-27T09:40:27.171Z,99994.81
2023-02-27T09:42:58.439Z,99994.94
2023-02-27T09:45:28.492Z,99990.47
2023-02-27T09:48:00.794Z,99996.97
2023-02-27T09:50:41.126Z,99987.88
2023-02-27T09:53:19.289Z,99982.59
2023-02-27T09:55:46.917Z,99994.97
2023-02-27T09:58:23.054Z,99995.00
2023-02-27T10:00:57.726Z,99988.69
2023-02-27T10:04:18.590Z,99986.94
2023-02-27T10:06:51.350Z,99982.78
2023-02-27T10:09:39.120Z,99984.69
2023-02-27T10:12:34.986Z,99984.84
2023-02-27T10:15:26.366Z,99995.47
2023-02-27T10:18:23.914Z,100004.50
2023-02-27T10:21:02.880Z,100007.38
2023-02-27T10:24:00.792Z,100009.50
2023-02-27T10:26:32.088Z,100016.50
2023-02-27T10:29:14.012Z,100022.97
2023-02-27T10:31:42.313Z,100024.19
2023-02-27T10:34:16.453Z,100018.41
2023-02-27T10:36:46.810Z,100014.63
2023-02-27T10:39:18.473Z,100015.66
2023-02-27T10:41:47.005Z,100014.47
2023-02-27T10:44:17.701Z,100027.13
2023-02-27T10:46:45.426Z,100037.16
2023-02-27T10:49:21.457Z,100032.88
2023-02-27T10:52:10.831Z,100035.31
2023-02-27T10:54:38.886Z,100046.16
2023-02-27T10:57:30.631Z,100046.47
2023-02-27T11:00:09.741Z,100052.13
2023-02-27T11:02:40.119Z,100061.66
2023-02-27T11:05:19.334Z,100063.38
2023-02-27T11:07:46.555Z,100057.38
2023-02-27T11:10:13.564Z,100063.19
2023-02-27T11:12:42.959Z,100062.75
2023-02-27T11:15:34.969Z,100063.03
2023-02-27T11:18:21.762Z,100070.72
2023-02-27T11:20:50.906Z,100078.66
2023-02-27T11:23:21.410Z,100074.25
2023-02-27T11:25:49.383Z,100071.06
2023-02-27T11:28:26.652Z,100078.81
2023-02-27T11:31:04.267Z,100078.53
2023-02-27T11:33:53.512Z,100079.03
2023-02-27T11:36:23.833Z,100077.88
2023-02-27T11:38:54.421Z,100079.75
2023-02-27T11:41:33.080Z,100086.88
2023-02-27T11:44:02.336Z,100085.63
2023-02-27T11:46:46.619Z,100085.97
2023-02-27T11:50:05.641Z,100087.59
2023-02-27T11:52:40.694Z,100097.31
2023-02-27T11:55:19.131Z,100094.97
2023-02-27T11:57:52.571Z,100102.25
2023-02-27T12:01:01.819Z,100104.47
2023-02-27T12:03:43.824Z,100109.53
2023-02-27T12:06:19.152Z,100109.59
2023-02-27T12:08:55.376Z,100110.38
2023-02-27T12:11:42.248Z,100113.72
2023-02-27T12:14:09.160Z,100119.41
2023-02-27T12:16:48.085Z,100123.59
2023-02-27T12:19:40.553Z,100133.47
2023-02-27T12:22:25.059Z,100136.16
2023-02-27T12:24:59.484Z,100146.38
2023-02-27T12:27:38.590Z,100137.94
2023-02-27T12:30:17.937Z,100150.81
2023-02-27T12:33:12.708Z,100143.88
2023-02-27T12:35:43.266Z,100151.66
2023-02-27T12:38:15.183Z,100143.09
2023-02-27T12:41:02.650Z,100146.81
2023-02-27T12:43:35.221Z,100144.84
2023-02-27T12:46:12.602Z,100154.09
2023-02-27T12:48:39.475Z,100157.84
2023-02-27T12:51:38.362Z,100164.03
2023-02-27T12:54:42.024Z,100177.91
2023-02-27T12:57:34.802Z,100177.38
2023-02-27T13:00:08.417Z,100181.09
2023-02-27T13:02:49.977Z,100188.47
2023-02-27T13:05:43.264Z,100197.41
2023-02-27T13:08:24.889Z,100195.84
2023-02-27T13:10:56.688Z,100196.66
2023-02-27T13:13:56.119Z,100206.38
2023-02-27T13:16:31.293Z,100200.00
2023-02-27T13:19:20.187Z,100195.88
2023-02-27T13:21:54.700Z,100198.31
2023-02-27T13:24:32.192Z,100200.44
2023-02-27T13:27:08.080Z,100194.59
2023-02-27T13:29:47.844Z,100201.16
2023-02-27T13:32:43.691Z,100210.59
2023-02-27T13:35:14.683Z,100216.38
2023-02-27T13:38:03.640Z,100213.16
2023-02-27T13:40:41.492Z,100212.19
2023-02-27T13:43:38.147Z,100228.63
2023-02-27T13:46:23.229Z,100227.06
2023-02-27T13:49:26.964Z,100238.72
2023-02-27T13:51:58.832Z,100241.94
2023-02-27T13:54:28.152Z,100244.56
2023-02-27T13:56:54.985Z,100250.19
2023-02-27T13:59:33.021Z,100256.28
2023-02-27T14:02:03.886Z,100267.16
2023-02-27T14:04:38.000Z,100248.78
2023-02-27T14:07:09.465Z,100251.53
2023-02-27T14:09:46.644Z,100262.69
2023-02-27T14:12:46.733Z,100274.69
2023-02-27T14:15:22.850Z,100267.94
2023-02-27T14:17:56.975Z,100281.75
2023-02-27T14:20:30.825Z,100281.88
2023-02-27T14:23:22.110Z,100288.03
2023-02-27T14:25:54.635Z,100287.19
2023-02-27T14:28:40.346Z,100295.44
2023-02-27T14:31:24.469Z,100299.38
2023-02-27T14:33:55.433Z,100305.44
2023-02-27T14:36:27.529Z,100303.84
2023-02-27T14:39:00.098Z,100304.97
2023-02-27T14:41:31.373Z,100306.75
2023-02-27T14:43:59.305Z,100316.19
2023-02-27T14:46:29.337Z,100302.59
2023-02-27T14:49:15.968Z,100311.66
2023-02-27T14:51:43.998Z,100311.88
2023-02-27T14:54:18.605Z,100307.25
2023-02-27T14:57:00.265Z,100308.88
2023-02-27T14:59:34.061Z,100316.56
2023-02-27T15:02:04.384Z,100313.34
2023-02-27T15:04:33.647Z,100322.16
2023-02-27T15:07:01.156Z,100320.50
2023-02-27T15:09:42.971Z,100320.72
2023-02-27T15:12:17.267Z,100331.22
2023-02-27T15:14:49.756Z,100334.66
2023-02-27T15:17:16.679Z,100334.88
2023-02-27T15:19:55.386Z,100335.91
2023-02-27T15:22:38.932Z,100324.84
2023-02-27T15:25:08.199Z,100345.25
2023-02-27T15:27:37.708Z,100355.13
2023-02-27T15:30:05.702Z,100349.84
2023-02-27T15:32:42.824Z,100361.66
2023-02-27T15:35:17.600Z,100364.91
2023-02-27T15:37:51.846Z,100359.66
2023-02-27T15:40:25.971Z,100362.00
2023-02-27T15:42:53.938Z,100367.91
2023-02-27T15:45:25.518Z,100372.44
2023-02-27T15:47:52.962Z,100365.22
2023-02-27T15:50:26.825Z,100361.66
2023-02-27T15:53:07.533Z,100355.19
2023-02-27T15:55:37.908Z,100374.31
2023-02-27T15:58:18.313Z,100379.53
2023-02-27T16:00:46.504Z,100382.91
2023-02-27T16:03:20.564Z,100389.84
2023-02-27T16:05:53.090Z,100393.22
2023-02-27T16:08:21.189Z,100411.09
2023-02-27T16:10:49.831Z,100413.50
2023-02-27T16:13:46.556Z,100412.69
2023-02-27T16:16:31.901Z,100413.38
2023-02-27T16:19:03.514Z,100417.19
2023-02-27T16:21:31.444Z,100420.69
2023-02-27T16:24:22.046Z,100432.44
2023-02-27T16:26:53.168Z,100432.03
2023-02-27T16:29:23.071Z,100445.44
2023-02-27T16:31:56.098Z,100445.13
2023-02-27T16:34:44.683Z,100439.88
2023-02-27T16:37:39.529Z,100458.97
2023-02-27T16:40:11.171Z,100449.16
2023-02-27T16:42:40.687Z,100453.13
2023-02-27T16:45:13.440Z,100450.66
2023-02-27T16:47:42.303Z,100461.19
2023-02-27T16:50:23.836Z,100466.28
2023-02-27T16:52:50.836Z,100461.34
2023-02-27T16:55:17.824Z,100470.41
2023-02-27T16:57:44.933Z,100473.19
2023-02-27T17:00:14.575Z,100470.63
2023-02-27T17:02:41.684Z,100471.28
2023-02-27T17:05:09.476Z,100470.94
2023-02-27T17:07:36.468Z,100465.44
2023-02-27T17:10:04.027Z,100486.91
2023-02-27T17:12:31.078Z,100474.16
2023-02-27T17:14:58.052Z,100476.31
2023-02-27T17:17:25.459Z,100487.97
2023-02-27T17:19:52.614Z,100488.25
2023-02-27T17:22:19.752Z,100489.03
2023-02-27T17:24:46.814Z,100486.78
2023-02-27T17:27:13.891Z,100492.94
2023-02-27T17:29:40.886Z,100501.63
2023-02-27T17:32:08.111Z,100500.16
2023-02-27T17:34:35.173Z,100505.63
2023-02-27T17:37:02.108Z,100513.13
2023-02-27T17:39:28.974Z,100520.22
2023-02-27T17:41:56.051Z,100510.06
2023-02-27T17:44:22.960Z,100511.91
2023-02-27T17:46:50.272Z,100514.28
2023-02-27T17:49:17.214Z,100516.00
2023-02-27T17:51:44.234Z,100513.31
2023-02-27T17:54:11.278Z,100513.41
2023-02-27T17:56:38.725Z,100514.81
2023-02-27T17:59:07.762Z,100517.31
2023-02-27T18:01:35.762Z,100521.63
2023-02-27T18:04:02.915Z,100524.22
2023-02-27T18:06:30.262Z,100515.81
2023-02-27T18:08:57.527Z,100513.41
2023-02-27T18:11:24.473Z,100515.53
2023-02-27T18:13:51.868Z,100511.44
2023-02-27T18:16:19.562Z,100509.13
2023-02-27T18:18:46.720Z,100518.50
2023-02-27T18:21:16.572Z,100523.63
2023-02-27T18:23:44.370Z,100519.28
2023-02-27T18:26:28.442Z,100511.72
2023-02-27T18:29:00.383Z,100503.41
2023-02-27T18:31:34.223Z,100507.09
2023-02-27T18:34:03.010Z,100502.91
2023-02-27T18:36:31.519Z,100509.03
2023-02-27T18:38:59.277Z,100508.28
2023-02-27T18:41:27.172Z,100503.59
2023-02-27T18:43:54.137Z,100492.88
2023-02-27T18:46:21.233Z,100489.44
2023-02-27T18:48:48.780Z,100496.22
2023-02-27T18:51:17.381Z,100492.84
2023-02-27T18:53:48.170Z,100493.13
2023-02-27T18:56:22.851Z,100501.75
2023-02-27T18:58:50.784Z,100517.06
2023-02-27T19:01:30.691Z,100507.06
2023-02-27T19:04:03.691Z,100503.78
2023-02-27T19:06:36.368Z,100512.31
2023-02-27T19:09:08.182Z,100514.03
2023-02-27T19:11:35.865Z,100514.97
2023-02-27T19:14:06.139Z,100523.66
2023-02-27T19:16:33.855Z,100528.09
2023-02-27T19:19:03.316Z,100521.38
2023-02-27T19:21:30.978Z,100519.03
2023-02-27T19:23:58.523Z,100510.75
2023-02-27T19:26:25.659Z,100519.97
2023-02-27T19:28:55.996Z,100524.56
2023-02-27T19:31:24.518Z,100525.28
2023-02-27T19:33:51.982Z,100523.69
2023-02-27T19:36:21.158Z,100528.75
2023-02-27T19:38:48.655Z,100522.91
2023-02-27T19:41:19.761Z,100526.56
2023-02-27T19:43:47.676Z,100507.81
2023-02-27T19:46:17.621Z,100513.00
2023-02-27T19:48:45.488Z,100513.91
2023-02-27T19:51:14.793Z,100513.09
2023-02-27T19:53:42.983Z,100502.22
2023-02-27T19:56:13.940Z,100504.63
2023-02-27T19:58:41.197Z,100504.75
2023-02-27T20:01:08.329Z,100505.56
2023-02-27T20:03:37.156Z,100497.22
2023-02-27T20:06:09.276Z,100503.09
2023-02-27T20:08:36.247Z,100514.28
2023-02-27T20:11:04.658Z,100504.06
2023-02-27T20:13:31.683Z,100499.84
2023-02-27T20:16:04.597Z,100503.25
2023-02-27T20:18:32.466Z,100514.34
2023-02-27T20:21:08.469Z,100514.41
2023-02-27T20:23:38.723Z,100522.97
2023-02-27T20:26:19.173Z,100526.38
2023-02-27T20:28:48.121Z,100528.97
2023-02-27T20:31:16.903Z,100528.16
2023-02-27T20:33:43.914Z,100528.38
2023-02-27T20:36:12.141Z,100536.84
2023-02-27T20:38:39.904Z,100536.91
2023-02-27T20:41:08.896Z,100531.94
2023-02-27T20:43:38.467Z,100520.03
2023-02-27T20:46:07.317Z,100528.53
2023-02-27T20:48:34.742Z,100525.19
2023-02-27T20:51:05.997Z,100528.56
2023-02-27T20:53:35.247Z,100524.41
2023-02-27T20:56:02.647Z,100522.00
2023-02-27T20:58:29.516Z,100523.69
2023-02-27T21:00:56.989Z,100514.44
2023-02-27T21:03:25.265Z,100524.59
2023-02-27T21:05:53.303Z,100522.06
2023-02-27T21:08:20.284Z,100525.66
2023-02-27T21:10:51.103Z,100519.75
2023-02-27T21:13:19.419Z,100523.06
2023-02-27T21:15:46.649Z,100530.69
2023-02-27T21:18:15.015Z,100529.06
2023-02-27T21:20:44.275Z,100529.16
2023-02-27T21:23:11.829Z,100530.09
2023-02-27T21:25:50.924Z,100530.94
2023-02-27T21:28:17.982Z,100531.78
2023-02-27T21:30:45.007Z,100530.94
2023-02-27T21:33:11.996Z,100526.66
2023-02-27T21:35:39.076Z,100516.47
2023-02-27T21:38:05.996Z,100511.56
2023-02-27T21:40:33.007Z,100510.75
2023-02-27T21:42:59.967Z,100508.28
2023-02-27T21:45:27.521Z,100516.69
2023-02-27T21:47:54.611Z,100517.50
2023-02-27T21:50:23.194Z,100513.41
2023-02-27T21:52:50.184Z,100512.50
2023-02-27T21:55:17.781Z,100508.28
2023-02-27T21:57:46.563Z,100509.19
2023-02-27T22:00:13.995Z,100515.06
2023-02-27T22:02:41.131Z,100510.84
2023-02-27T22:05:08.502Z,100502.34
2023-02-27T22:07:35.479Z,100511.59
2023-02-27T22:10:02.871Z,100500.66
2023-02-27T22:12:30.318Z,100506.59
2023-02-27T22:14:57.240Z,100509.22
2023-02-27T22:17:24.127Z,100512.56
2023-02-27T22:19:51.191Z,100505.78
2023-02-27T22:22:18.194Z,100510.91
2023-02-27T22:24:45.163Z,100515.19
2023-02-27T22:27:12.027Z,100514.34
2023-02-27T22:29:38.911Z,100509.28
2023-02-27T22:32:06.896Z,100508.50
2023-02-27T22:34:34.572Z,100505.13
2023-02-27T22:37:07.341Z,100510.25
2023-02-27T22:39:34.518Z,100510.22
2023-02-27T22:42:01.577Z,100511.00
2023-02-27T22:44:28.481Z,100511.09
2023-02-27T22:46:55.920Z,100511.00
2023-02-27T22:49:23.930Z,100509.38
2023-02-27T22:51:52.357Z,100517.84
2023-02-27T22:54:21.033Z,100518.72
2023-02-27T22:56:51.134Z,100501.03
2023-02-27T22:59:18.196Z,100505.19
2023-02-27T23:01:50.706Z,100503.56
2023-02-27T23:04:30.678Z,100495.94
2023-02-27T23:07:02.680Z,100501.94
2023-02-27T23:09:29.937Z,100499.38
2023-02-27T23:12:06.778Z,100494.25
2023-02-27T23:14:33.869Z,100490.94
2023-02-27T23:17:00.757Z,100491.81
2023-02-27T23:19:27.680Z,100501.25
2023-02-27T23:21:54.584Z,100502.13
2023-02-27T23:24:21.538Z,100486.81
2023-02-27T23:26:51.316Z,100487.72
2023-02-27T23:29:18.628Z,100474.09
2023-02-27T23:31:45.795Z,100482.63
2023-02-27T23:34:12.886Z,100479.19
2023-02-27T23:36:40.665Z,100475.78
2023-02-27T23:39:08.357Z,100470.72
2023-02-27T23:41:35.636Z,100469.09
2023-02-27T23:44:21.916Z,100468.25
2023-02-27T23:46:49.884Z,100469.06
2023-02-27T23:49:28.528Z,100473.28
2023-02-27T23:52:00.920Z,100471.53
2023-02-27T23:54:27.850Z,100458.75
2023-02-27T23:56:54.760Z,100458.75
2023-02-27T23:59:21.758Z,100463.91
